Time;durP1;ratioP1;P1;durP2;ratioP2;P2;SDS_P1;SDS_P2;PMS_P1;PMS_P2;Temp;Humidity;BMP_temperature;BMP_pressure;BME280_temperature;BME280_humidity;BME280_pressure;Samples;Min_cycle;Max_cycle;Signal;HPM_P1;HPM_P2
2023/03/21 00:01:05;;;;;;;14.48;6.95;;;10.40;99.90;;;;;;5137913;27;20023;-61
2023/03/21 00:03:32;;;;;;;12.60;6.97;;;10.30;99.90;;;;;;5137197;27;20053;-60
2023/03/21 00:05:59;;;;;;;13.98;7.28;;;10.20;99.90;;;;;;5137918;27;20034;-61
2023/03/21 00:08:25;;;;;;;14.43;7.03;;;10.20;99.90;;;;;;5137514;27;20027;-61
2023/03/21 00:10:56;;;;;;;13.35;6.63;;;10.30;99.90;;;;;;5137129;28;20122;-61
2023/03/21 00:13:22;;;;;;;9.60;7.05;;;10.50;99.90;;;;;;5137809;27;20348;-61
2023/03/21 00:15:53;;;;;;;12.40;7.30;;;10.70;99.90;;;;;;5137745;27;20027;-61
2023/03/21 00:18:21;;;;;;;9.90;6.30;;;10.60;99.90;;;;;;5120860;28;20160;-61
2023/03/21 00:20:59;;;;;;;13.40;6.70;;;10.70;99.90;;;;;;5137732;27;20031;-61
2023/03/21 00:23:26;;;;;;;10.30;6.82;;;10.70;99.90;;;;;;5137680;28;20339;-61
2023/03/21 00:25:52;;;;;;;16.45;6.80;;;10.80;99.90;;;;;;5136945;27;20073;-61
2023/03/21 00:28:19;;;;;;;11.35;6.15;;;10.70;99.90;;;;;;5136961;28;20039;-61
2023/03/21 00:30:45;;;;;;;13.20;6.53;;;10.60;99.90;;;;;;5137673;27;20035;-61
2023/03/21 00:33:11;;;;;;;12.82;6.60;;;10.60;99.90;;;;;;5137667;27;20027;-61
2023/03/21 00:35:38;;;;;;;10.98;6.18;;;10.60;99.90;;;;;;5137869;27;20284;-62
2023/03/21 00:38:06;;;;;;;14.40;6.47;;;10.60;99.90;;;;;;5138364;27;20041;-60
2023/03/21 00:40:32;;;;;;;11.70;6.40;;;10.50;99.90;;;;;;5141367;27;20063;-60
2023/03/21 00:42:58;;;;;;;11.82;5.97;;;10.50;99.90;;;;;;5141524;27;20043;-61
2023/03/21 00:45:25;;;;;;;14.27;6.40;;;10.50;99.90;;;;;;5141466;27;20031;-61
2023/03/21 00:47:52;;;;;;;12.38;5.93;;;10.50;99.90;;;;;;5140953;27;20054;-60
2023/03/21 00:50:18;;;;;;;13.85;6.38;;;10.60;99.90;;;;;;5141367;27;20027;-61
2023/03/21 00:52:44;;;;;;;12.77;6.25;;;10.80;99.90;;;;;;5123255;27;20054;-60
2023/03/21 00:55:16;;;;;;;11.95;6.13;;;10.70;99.90;;;;;;5141411;27;20019;-60
2023/03/21 00:57:44;;;;;;;11.55;6.22;;;10.80;99.90;;;;;;5141200;27;20027;-61
2023/03/21 01:00:13;;;;;;;11.50;5.97;;;10.70;99.90;;;;;;5140424;27;20062;-60
2023/03/21 01:02:55;;;;;;;15.98;6.22;;;10.60;99.90;;;;;;5141104;27;20031;-62
2023/03/21 01:08:16;;;;;;;9.88;5.95;;;10.70;99.90;;;;;;5141037;27;20034;-62
2023/03/21 01:10:47;;;;;;;9.82;6.07;;;10.80;99.90;;;;;;5123186;27;20035;-59
2023/03/21 01:13:15;;;;;;;11.18;6.10;;;10.70;99.90;;;;;;5140965;27;20034;-61
2023/03/21 01:15:44;;;;;;;7.35;5.60;;;10.80;99.90;;;;;;5140096;27;20027;-61
2023/03/21 01:18:11;;;;;;;10.80;6.70;;;10.90;99.90;;;;;;5122937;27;20348;-61
2023/03/21 01:20:39;;;;;;;10.52;6.03;;;11.00;99.90;;;;;;5123032;27;20027;-61
2023/03/21 01:23:04;;;;;;;11.90;6.18;;;11.00;99.90;;;;;;5140678;27;20032;-61
2023/03/21 01:25:30;;;;;;;11.02;6.15;;;11.00;99.90;;;;;;5139969;27;20042;-60
2023/03/21 01:27:56;;;;;;;13.00;6.65;;;11.00;99.90;;;;;;5122859;27;20042;-61
2023/03/21 01:30:22;;;;;;;9.20;5.53;;;11.10;99.90;;;;;;5139779;27;20061;-61
2023/03/21 01:32:49;;;;;;;9.27;5.80;;;11.20;99.90;;;;;;5122660;27;20092;-61
2023/03/21 01:35:15;;;;;;;10.60;6.32;;;11.20;99.90;;;;;;5122931;27;20316;-61
2023/03/21 01:37:42;;;;;;;9.32;5.68;;;11.10;99.90;;;;;;5140761;27;20027;-60
2023/03/21 01:40:14;;;;;;;10.25;5.90;;;10.90;99.90;;;;;;5140450;27;20047;-60
2023/03/21 01:42:40;;;;;;;12.20;6.47;;;10.90;99.90;;;;;;5139931;27;20031;-61
2023/03/21 01:45:46;;;;;;;9.18;5.90;;;10.90;99.90;;;;;;5122518;27;20035;-61
2023/03/21 01:48:14;;;;;;;13.63;6.15;;;10.90;99.90;;;;;;5139542;27;20031;-60
2023/03/21 01:50:46;;;;;;;9.93;6.47;;;11.00;99.90;;;;;;5138589;27;20027;-61
2023/03/21 01:53:29;;;;;;;11.85;6.32;;;11.00;99.90;;;;;;5139408;27;20034;-61
2023/03/21 01:56:12;;;;;;;14.73;7.25;;;11.00;99.90;;;;;;5122313;27;20386;-61
2023/03/21 01:59:02;;;;;;;14.88;7.00;;;10.90;99.90;;;;;;5124433;27;20362;-61
2023/03/21 02:01:57;;;;;;;11.98;6.68;;;10.90;99.90;;;;;;5139372;27;20072;-61
2023/03/21 02:04:27;;;;;;;13.50;7.18;;;11.00;99.90;;;;;;5122509;27;20042;-60
2023/03/21 02:07:27;;;;;;;12.95;6.53;;;10.80;99.90;;;;;;5135841;27;20043;-60
2023/03/21 02:09:59;;;;;;;10.77;6.43;;;10.80;99.90;;;;;;5139183;27;20343;-60
2023/03/21 02:12:26;;;;;;;14.30;6.82;;;10.80;99.90;;;;;;5121914;27;20066;-60
2023/03/21 02:14:53;;;;;;;11.43;6.50;;;10.90;99.90;;;;;;5139425;27;20341;-61
2023/03/21 02:17:41;;;;;;;10.02;6.32;;;10.90;99.90;;;;;;5139093;27;20320;-61
2023/03/21 02:20:30;;;;;;;12.10;6.80;;;10.90;99.90;;;;;;5138878;27;20045;-61
2023/03/21 02:23:15;;;;;;;11.52;6.15;;;10.90;99.90;;;;;;5122129;27;20273;-61
2023/03/21 02:26:31;;;;;;;10.48;5.90;;;10.80;99.90;;;;;;5138773;27;20042;-60
2023/03/21 02:29:05;;;;;;;9.20;5.93;;;10.80;99.90;;;;;;5104837;27;20067;-61
2023/03/21 02:31:36;;;;;;;10.10;6.18;;;10.80;99.90;;;;;;5139422;27;20027;-61
2023/03/21 02:34:27;;;;;;;14.23;6.17;;;10.80;99.90;;;;;;5139415;27;20094;-61
2023/03/21 02:37:26;;;;;;;10.73;6.07;;;10.80;99.90;;;;;;5138621;27;20038;-61
2023/03/21 02:40:09;;;;;;;12.52;6.07;;;10.90;99.90;;;;;;5139259;27;20319;-61
2023/03/21 02:42:44;;;;;;;12.52;5.97;;;10.70;99.90;;;;;;5138601;27;20038;-61
2023/03/21 02:45:20;;;;;;;15.55;6.45;;;10.60;99.90;;;;;;5138488;27;20057;-61
2023/03/21 02:48:03;;;;;;;12.05;5.68;;;10.50;99.90;;;;;;5138776;27;20023;-61
2023/03/21 02:50:46;;;;;;;10.10;6.38;;;10.50;99.90;;;;;;5138235;27;20096;-61
2023/03/21 02:53:15;;;;;;;;;;;10.40;99.90;;;;;;5138753;27;20038;-61
2023/03/21 02:55:42;;;;;;;10.35;5.70;;;10.50;99.90;;;;;;5138116;27;19911;-60
2023/03/21 02:58:13;;;;;;;11.23;5.75;;;10.50;99.90;;;;;;5104422;27;20334;-61
2023/03/21 03:00:48;;;;;;;13.57;6.10;;;10.50;99.90;;;;;;5121894;27;20027;-61
2023/03/21 03:03:26;;;;;;;13.70;6.07;;;10.50;99.90;;;;;;5138485;27;20031;-61
2023/03/21 03:05:55;;;;;;;12.25;6.15;;;10.50;99.90;;;;;;5138894;27;20038;-61
2023/03/21 03:08:47;;;;;;;10.48;5.72;;;10.60;99.90;;;;;;5138000;27;20019;-61
2023/03/21 03:11:40;;;;;;;10.38;5.70;;;10.70;99.90;;;;;;5138909;27;20305;-61
2023/03/21 03:14:36;;;;;;;13.50;6.27;;;10.70;99.90;;;;;;5138642;27;20080;-61
2023/03/21 03:17:31;;;;;;;13.00;5.72;;;10.70;99.90;;;;;;5137771;27;20042;-61
2023/03/21 03:20:19;;;;;;;12.07;5.68;;;10.70;99.90;;;;;;5116464;27;20051;-61
2023/03/21 03:23:18;;;;;;;9.05;5.43;;;10.70;99.90;;;;;;5137717;27;20113;-61
2023/03/21 03:26:07;;;;;;;10.75;5.93;;;10.70;99.90;;;;;;5130084;27;20043;-61
2023/03/21 03:28:39;;;;;;;13.52;5.93;;;10.50;99.90;;;;;;5119359;27;20027;-61
2023/03/21 03:31:13;;;;;;;13.35;5.45;;;10.50;99.90;;;;;;5137613;27;20366;-61
2023/03/21 03:33:47;;;;;;;13.02;5.82;;;10.50;99.90;;;;;;5138405;27;20118;-61
2023/03/21 03:36:14;;;;;;;14.70;5.68;;;10.60;99.90;;;;;;5137555;27;20276;-61
2023/03/21 03:38:41;;;;;;;15.02;6.47;;;10.60;99.90;;;;;;5137503;27;20047;-61
2023/03/21 03:41:22;;;;;;;13.35;5.82;;;10.60;99.90;;;;;;5138048;27;20092;-61
2023/03/21 03:43:58;;;;;;;15.07;6.30;;;10.60;99.90;;;;;;5137772;27;20083;-61
2023/03/21 03:46:32;;;;;;;;;;;10.70;99.90;;;;;;5137756;27;20027;-61
2023/03/21 03:49:04;;;;;;;11.10;5.68;;;10.70;99.90;;;;;;5137308;27;19911;-61
2023/03/21 03:51:52;;;;;;;10.90;5.50;;;10.80;99.90;;;;;;5137345;27;20038;-61
2023/03/21 03:54:39;;;;;;;10.32;5.32;;;10.70;99.90;;;;;;5137259;27;20418;-61
2023/03/21 03:57:06;;;;;;;11.90;5.93;;;10.80;99.90;;;;;;5138067;27;20027;-61
2023/03/21 03:59:37;;;;;;;10.98;5.80;;;10.70;99.90;;;;;;5137215;27;20060;-61
2023/03/21 04:02:24;;;;;;;10.55;5.75;;;10.70;99.90;;;;;;5138116;27;20027;-61
2023/03/21 04:04:52;;;;;;;19.58;6.68;;;10.80;99.90;;;;;;5120201;28;20319;-61
2023/03/21 04:07:20;;;;;;;12.85;5.95;;;10.80;99.90;;;;;;5120123;28;20031;-61
2023/03/21 04:09:47;;;;;;;12.65;5.97;;;10.90;99.90;;;;;;5120356;28;20050;-61
2023/03/21 04:12:16;;;;;;;13.57;5.57;;;11.00;99.90;;;;;;5137420;27;20042;-61
2023/03/21 04:14:55;;;;;;;14.02;5.70;;;11.00;99.90;;;;;;5126363;27;20031;-61
2023/03/21 04:17:21;;;;;;;9.27;5.38;;;10.80;99.90;;;;;;5141458;27;20396;-61
2023/03/21 04:19:50;;;;;;;9.82;4.90;;;10.90;99.90;;;;;;5124285;27;20303;-61
2023/03/21 04:22:16;;;;;;;15.60;5.47;;;11.00;99.90;;;;;;5141237;27;20061;-61
2023/03/21 04:24:43;;;;;;;9.85;5.35;;;10.90;99.90;;;;;;5124215;27;20031;-61
2023/03/21 04:27:09;;;;;;;14.43;5.43;;;11.00;99.90;;;;;;5141304;27;20035;-61
2023/03/21 04:29:40;;;;;;;17.30;5.40;;;11.00;99.90;;;;;;5124848;27;20425;-61
2023/03/21 04:32:18;;;;;;;10.40;4.63;;;11.00;99.90;;;;;;5125265;27;20038;-61
2023/03/21 04:34:53;;;;;;;11.43;5.05;;;11.00;99.90;;;;;;5141014;27;20308;-61
2023/03/21 04:37:22;;;;;;;12.43;5.28;;;11.00;99.90;;;;;;5123951;27;20023;-61
2023/03/21 04:39:50;;;;;;;13.85;4.85;;;11.00;99.90;;;;;;5123814;27;20023;-61
2023/03/21 04:42:17;;;;;;;13.48;5.00;;;11.00;99.90;;;;;;5123831;27;20314;-61
2023/03/21 04:44:47;;;;;;;12.27;4.97;;;11.00;99.90;;;;;;5140786;27;20095;-61
2023/03/21 04:47:14;;;;;;;13.32;5.32;;;11.00;99.90;;;;;;5140749;27;20084;-61
2023/03/21 04:49:42;;;;;;;10.73;4.75;;;10.90;99.90;;;;;;5140732;27;20372;-60
2023/03/21 04:52:10;;;;;;;12.23;5.28;;;10.90;99.90;;;;;;5123911;27;20031;-63
2023/03/21 04:54:36;;;;;;;14.75;5.22;;;10.90;99.90;;;;;;5141392;27;20349;-61
2023/03/21 04:57:03;;;;;;;13.07;5.18;;;10.90;99.90;;;;;;5141406;27;20033;-61
2023/03/21 04:59:30;;;;;;;11.18;4.68;;;10.80;99.90;;;;;;5141231;27;20400;-61
2023/03/21 05:01:57;;;;;;;15.10;5.32;;;10.90;99.90;;;;;;5141290;27;20110;-61
2023/03/21 05:04:24;;;;;;;10.63;5.10;;;11.00;99.90;;;;;;5140468;27;20054;-61
2023/03/21 05:06:50;;;;;;;11.88;5.18;;;10.90;99.90;;;;;;5141089;27;20027;-61
2023/03/21 05:09:16;;;;;;;12.32;4.78;;;10.90;99.90;;;;;;5140303;27;20046;-61
2023/03/21 05:11:42;;;;;;;13.88;5.18;;;10.90;99.90;;;;;;5123214;27;20027;-61
2023/03/21 05:14:16;;;;;;;10.85;5.35;;;10.90;99.90;;;;;;5123319;27;20142;-60
2023/03/21 05:16:47;;;;;;;13.23;5.57;;;10.90;99.90;;;;;;5123041;27;20376;-61
2023/03/21 05:19:16;;;;;;;;;;;10.90;99.90;;;;;;5140699;27;20292;-61
2023/03/21 05:21:43;;;;;;;13.40;6.10;;;10.90;99.90;;;;;;5140030;27;19923;-61
2023/03/21 05:24:20;;;;;;;13.20;5.85;;;10.90;99.90;;;;;;5107711;27;20031;-60
2023/03/21 05:26:51;;;;;;;13.00;5.73;;;10.90;99.90;;;;;;5140002;27;20038;-60
2023/03/21 05:29:20;;;;;;;12.60;6.18;;;10.90;99.90;;;;;;5140086;27;20288;-61
2023/03/21 05:31:54;;;;;;;19.33;5.55;;;10.90;99.90;;;;;;5123928;27;20064;-60
2023/03/21 05:34:20;;;;;;;11.40;5.75;;;10.90;99.90;;;;;;5139702;27;20027;-61
2023/03/21 05:36:46;;;;;;;15.65;6.57;;;11.00;99.90;;;;;;5139655;27;20031;-61
2023/03/21 05:39:12;;;;;;;14.90;6.20;;;11.00;99.90;;;;;;5140998;27;20388;-61
2023/03/21 05:41:44;;;;;;;14.90;7.10;;;11.00;99.90;;;;;;5139575;27;20039;-60
2023/03/21 05:44:09;;;;;;;17.23;6.68;;;11.00;99.90;;;;;;5140333;27;20031;-60
2023/03/21 05:46:37;;;;;;;13.75;6.68;;;11.00;99.90;;;;;;5139679;27;20027;-61
2023/03/21 05:49:04;;;;;;;15.90;6.53;;;11.00;99.90;;;;;;5122650;27;20130;-60
2023/03/21 05:51:30;;;;;;;16.20;6.88;;;11.00;99.90;;;;;;5140216;27;20031;-60
2023/03/21 05:53:56;;;;;;;18.15;6.57;;;11.00;99.90;;;;;;5140712;27;20041;-60
2023/03/21 05:56:22;;;;;;;15.77;6.78;;;11.00;99.90;;;;;;5140171;27;20027;-61
2023/03/21 05:59:01;;;;;;;11.57;6.35;;;11.00;99.90;;;;;;5140097;27;20126;-61
2023/03/21 06:01:27;;;;;;;13.48;6.68;;;11.00;99.90;;;;;;5139037;27;20068;-61
2023/03/21 06:04:04;;;;;;;15.20;7.03;;;11.00;99.90;;;;;;5138761;27;20180;-61
2023/03/21 06:06:30;;;;;;;17.60;7.25;;;11.00;99.90;;;;;;5121879;27;20118;-62
2023/03/21 06:08:59;;;;;;;14.30;6.78;;;11.00;99.90;;;;;;5139495;27;20117;-61
2023/03/21 06:11:29;;;;;;;19.02;7.45;;;10.90;99.90;;;;;;5138695;27;20171;-61
2023/03/21 06:14:15;;;;;;;17.77;7.72;;;10.90;99.90;;;;;;5138613;27;20058;-60
2023/03/21 06:16:43;;;;;;;18.88;8.05;;;10.80;99.90;;;;;;5138987;27;20019;-59
2023/03/21 06:19:09;;;;;;;20.75;8.30;;;10.80;99.90;;;;;;5139788;27;20307;-59
2023/03/21 06:22:00;;;;;;;19.50;9.05;;;10.70;99.90;;;;;;5138957;27;20027;-59
2023/03/21 06:24:26;;;;;;;19.27;8.82;;;10.60;99.90;;;;;;5138896;27;20460;-58
2023/03/21 06:26:52;;;;;;;18.65;8.90;;;10.50;99.90;;;;;;5138856;27;20038;-59
2023/03/21 06:29:18;;;;;;;22.33;10.05;;;10.40;99.90;;;;;;5138781;27;20031;-59
2023/03/21 06:31:48;;;;;;;17.98;10.18;;;10.40;99.90;;;;;;5138685;27;20039;-59
2023/03/21 06:34:15;;;;;;;20.52;9.77;;;10.40;99.90;;;;;;5138498;27;20027;-59
2023/03/21 06:36:43;;;;;;;18.45;9.45;;;10.40;99.90;;;;;;5137983;27;20046;-59
2023/03/21 06:39:10;;;;;;;23.20;9.88;;;10.40;99.90;;;;;;5121535;27;20023;-58
2023/03/21 06:41:38;;;;;;;22.40;10.00;;;10.40;99.90;;;;;;5138235;27;20058;-58
2023/03/21 06:44:04;;;;;;;26.05;11.05;;;10.50;99.90;;;;;;5121210;27;20039;-58
2023/03/21 06:46:38;;;;;;;20.90;10.35;;;10.50;99.90;;;;;;5139474;27;20023;-59
2023/03/21 06:49:04;;;;;;;19.00;9.57;;;10.50;99.90;;;;;;5138209;27;20068;-59
2023/03/21 06:51:30;;;;;;;16.58;8.82;;;10.50;99.90;;;;;;5139123;27;20035;-60
2023/03/21 06:54:18;;;;;;;19.35;8.00;;;10.60;99.90;;;;;;5138084;27;20039;-60
2023/03/21 06:57:04;;;;;;;17.30;8.10;;;10.50;99.90;;;;;;5138397;27;20027;-60
2023/03/21 06:59:33;;;;;;;15.63;8.07;;;10.50;99.90;;;;;;5121436;27;20020;-59
2023/03/21 07:02:06;;;;;;;16.92;7.65;;;10.40;99.90;;;;;;5138288;27;20031;-59
2023/03/21 07:04:37;;;;;;;14.10;7.90;;;10.40;99.90;;;;;;5138055;27;20031;-59
2023/03/21 07:07:05;;;;;;;19.88;7.05;;;10.40;99.90;;;;;;5121252;27;20553;-59
2023/03/21 07:09:30;;;;;;;14.40;7.47;;;10.40;99.90;;;;;;5138239;27;20034;-59
2023/03/21 07:12:02;;;;;;;14.77;7.13;;;10.40;99.90;;;;;;5137943;27;20031;-60
2023/03/21 07:14:40;;;;;;;16.02;7.03;;;10.40;99.90;;;;;;5137752;27;20050;-59
2023/03/21 07:17:06;;;;;;;17.48;7.63;;;10.40;99.90;;;;;;5138510;27;20031;-59
2023/03/21 07:19:31;;;;;;;16.30;6.75;;;10.30;99.90;;;;;;5137695;27;20299;-60
2023/03/21 07:22:00;;;;;;;14.77;7.00;;;10.30;99.90;;;;;;5138081;27;20039;-59
2023/03/21 07:24:27;;;;;;;16.42;7.38;;;10.30;99.90;;;;;;5120927;27;20050;-60
2023/03/21 07:26:53;;;;;;;13.45;6.82;;;10.30;99.90;;;;;;5137683;27;20318;-60
2023/03/21 07:29:21;;;;;;;14.38;7.50;;;10.30;99.90;;;;;;5137590;27;20407;-64
2023/03/21 07:31:47;;;;;;;10.48;6.45;;;10.40;99.90;;;;;;5137792;27;20313;-61
2023/03/21 07:34:15;;;;;;;17.52;7.10;;;10.40;99.90;;;;;;5120283;27;20122;-62
2023/03/21 07:36:41;;;;;;;13.75;6.82;;;10.40;99.90;;;;;;5138203;27;20052;-61
2023/03/21 07:39:07;;;;;;;11.77;6.90;;;10.50;99.90;;;;;;5137342;27;20023;-61
2023/03/21 07:41:33;;;;;;;12.38;6.90;;;10.60;99.90;;;;;;5137077;27;20108;-61
2023/03/21 07:44:10;;;;;;;16.70;7.25;;;10.60;99.90;;;;;;5137259;27;20054;-61
2023/03/21 07:46:36;;;;;;;12.23;6.80;;;10.60;99.90;;;;;;5136834;27;20054;-59
2023/03/21 07:49:02;;;;;;;14.38;7.25;;;10.70;99.90;;;;;;5137544;27;20110;-59
2023/03/21 07:51:28;;;;;;;12.18;6.68;;;10.70;99.90;;;;;;5137603;27;20088;-59
2023/03/21 07:53:54;;;;;;;13.85;7.20;;;10.70;99.90;;;;;;5137154;27;20039;-58
2023/03/21 07:56:20;;;;;;;15.70;7.88;;;10.70;99.90;;;;;;5137924;27;20395;-59
2023/03/21 07:58:46;;;;;;;15.20;7.78;;;10.70;99.90;;;;;;5137317;27;20055;-59
2023/03/21 08:01:12;;;;;;;15.98;6.80;;;10.70;99.90;;;;;;5137925;27;20023;-58
2023/03/21 08:03:38;;;;;;;14.38;6.88;;;10.80;99.90;;;;;;5120172;28;20031;-59
2023/03/21 08:06:04;;;;;;;22.92;8.18;;;10.80;99.90;;;;;;5137930;27;20085;-61
2023/03/21 08:08:30;;;;;;;14.20;6.45;;;10.90;99.90;;;;;;5137745;27;20027;-59
2023/03/21 08:10:56;;;;;;;12.55;6.43;;;11.10;99.90;;;;;;5137167;28;20168;-59
2023/03/21 08:13:21;;;;;;;15.45;5.95;;;11.10;99.90;;;;;;5136810;28;20041;-58
2023/03/21 08:15:47;;;;;;;11.82;5.95;;;11.10;99.90;;;;;;5137795;27;20099;-59
2023/03/21 08:18:13;;;;;;;13.18;6.63;;;11.10;99.90;;;;;;5137678;28;20030;-59
2023/03/21 08:20:40;;;;;;;11.13;6.05;;;11.10;99.90;;;;;;5137877;28;20028;-59
2023/03/21 08:23:05;;;;;;;12.18;6.53;;;11.20;99.90;;;;;;5137622;27;20034;-59
2023/03/21 08:25:32;;;;;;;15.13;6.07;;;11.20;99.90;;;;;;5137706;27;20035;-58
2023/03/21 08:27:58;;;;;;;14.63;6.90;;;11.30;99.90;;;;;;5137667;27;20091;-59
2023/03/21 08:30:26;;;;;;;10.52;5.28;;;11.30;99.90;;;;;;5137567;27;20031;-58
2023/03/21 08:32:57;;;;;;;12.93;5.40;;;11.30;99.90;;;;;;5137565;27;20055;-60
2023/03/21 08:35:24;;;;;;;9.23;5.43;;;11.40;99.90;;;;;;5137592;27;20031;-59
2023/03/21 08:37:49;;;;;;;16.73;6.30;;;11.40;99.90;;;;;;5137595;27;20033;-59
2023/03/21 08:40:18;;;;;;;17.27;7.32;;;11.40;99.90;;;;;;5137433;28;20137;-60
2023/03/21 08:42:45;;;;;;;11.70;5.97;;;11.60;99.90;;;;;;5137454;27;20027;-59
2023/03/21 08:45:12;;;;;;;10.80;5.60;;;11.70;99.90;;;;;;5137006;28;20106;-59
2023/03/21 08:47:39;;;;;;;12.57;4.50;;;11.90;99.90;;;;;;5136665;28;20432;-59
2023/03/21 08:50:06;;;;;;;10.95;5.78;;;12.00;99.90;;;;;;5137446;27;20277;-59
2023/03/21 08:52:33;;;;;;;11.25;5.20;;;12.00;99.90;;;;;;5137420;27;20118;-59
2023/03/21 08:55:00;;;;;;;13.05;4.88;;;12.00;99.90;;;;;;5119482;28;20035;-58
2023/03/21 08:57:27;;;;;;;9.73;4.43;;;12.00;99.90;;;;;;5137398;27;20152;-59
2023/03/21 08:59:53;;;;;;;9.50;4.28;;;12.20;99.90;;;;;;5140221;27;20447;-59
2023/03/21 09:02:19;;;;;;;9.18;4.18;;;12.20;99.90;;;;;;5140470;27;20035;-58
2023/03/21 09:04:46;;;;;;;8.15;4.13;;;12.10;99.90;;;;;;5140339;27;20071;-59
2023/03/21 09:07:13;;;;;;;9.30;3.97;;;12.10;99.90;;;;;;5123489;27;20311;-59
2023/03/21 09:09:41;;;;;;;9.13;3.65;;;12.30;99.90;;;;;;5141270;27;20391;-59
2023/03/21 09:12:07;;;;;;;12.43;4.07;;;12.50;96.30;;;;;;5141072;27;20031;-58
2023/03/21 09:14:34;;;;;;;11.45;3.67;;;12.60;95.90;;;;;;5140960;27;20057;-59
2023/03/21 09:17:00;;;;;;;7.03;3.42;;;12.60;95.00;;;;;;5140937;27;20031;-59
2023/03/21 09:19:26;;;;;;;6.93;3.72;;;12.50;95.90;;;;;;5140212;27;20038;-57
2023/03/21 09:21:53;;;;;;;7.63;3.28;;;12.50;98.50;;;;;;5141437;27;20367;-61
2023/03/21 09:24:19;;;;;;;7.82;3.28;;;12.60;97.40;;;;;;5140812;27;20035;-58
2023/03/21 09:26:49;;;;;;;8.65;3.55;;;12.70;93.90;;;;;;5140332;27;20448;-58
2023/03/21 09:29:15;;;;;;;7.82;3.67;;;12.50;95.80;;;;;;5139991;27;20027;-58
2023/03/21 09:31:42;;;;;;;8.80;3.83;;;12.50;95.20;;;;;;5122751;27;20092;-58
2023/03/21 09:34:08;;;;;;;11.27;3.80;;;12.60;96.20;;;;;;5139804;27;20125;-59
2023/03/21 09:36:35;;;;;;;8.50;3.92;;;12.60;93.40;;;;;;5139790;27;20050;-57
2023/03/21 09:39:02;;;;;;;11.25;3.88;;;12.70;94.20;;;;;;5140462;27;20367;-58
2023/03/21 09:41:38;;;;;;;6.32;3.22;;;12.90;92.00;;;;;;5140340;27;20046;-57
2023/03/21 09:44:24;;;;;;;6.35;3.47;;;12.70;92.40;;;;;;5141076;27;20058;-58
2023/03/21 09:47:12;;;;;;;7.78;3.30;;;12.70;91.80;;;;;;5141035;27;20084;-57
2023/03/21 09:49:47;;;;;;;7.30;2.92;;;12.70;92.70;;;;;;5140394;27;20047;-58
2023/03/21 09:52:31;;;;;;;8.10;3.45;;;12.90;91.20;;;;;;5140399;27;20035;-58
2023/03/21 09:54:58;;;;;;;6.78;3.13;;;13.00;91.00;;;;;;5140118;27;20031;-58
2023/03/21 09:57:39;;;;;;;7.60;3.22;;;13.10;88.50;;;;;;5139524;27;20027;-58
2023/03/21 10:00:18;;;;;;;8.95;3.30;;;13.00;88.80;;;;;;5140037;27;20020;-58
2023/03/21 10:02:48;;;;;;;8.55;3.10;;;13.10;83.90;;;;;;5140089;27;20400;-61
2023/03/21 10:05:20;;;;;;;8.00;3.05;;;13.40;79.30;;;;;;5139944;27;20035;-60
2023/03/21 10:07:57;;;;;;;10.75;3.47;;;13.30;73.50;;;;;;5140020;27;20027;-58
2023/03/21 10:10:44;;;;;;;11.52;3.22;;;13.20;79.80;;;;;;5139056;27;20092;-58
2023/03/21 10:13:19;;;;;;;9.85;3.42;;;13.10;74.10;;;;;;5139810;27;20038;-58
2023/03/21 10:15:45;;;;;;;9.30;3.38;;;12.90;80.10;;;;;;5139842;27;20042;-58
2023/03/21 10:18:22;;;;;;;9.60;3.78;;;12.90;79.50;;;;;;5139653;27;20106;-59
2023/03/21 10:20:50;;;;;;;8.02;3.08;;;12.90;83.50;;;;;;5139828;27;20416;-61
2023/03/21 10:23:19;;;;;;;9.25;3.38;;;13.10;72.40;;;;;;5139539;27;20338;-61
2023/03/21 10:25:53;;;;;;;9.60;3.75;;;13.00;77.20;;;;;;5139478;27;20118;-63
2023/03/21 10:28:29;;;;;;;7.85;3.53;;;12.90;74.90;;;;;;5139162;27;20098;-62
2023/03/21 10:30:59;;;;;;;6.93;3.08;;;13.00;83.00;;;;;;5139436;27;20027;-63
2023/03/21 10:33:31;;;;;;;9.23;2.90;;;13.20;66.90;;;;;;5138494;27;20300;-62
2023/03/21 10:36:02;;;;;;;6.18;2.80;;;13.10;70.00;;;;;;5139109;27;20091;-61
2023/03/21 10:38:29;;;;;;;6.30;2.88;;;13.30;71.50;;;;;;5138514;27;20031;-63
2023/03/21 10:40:55;;;;;;;5.47;3.22;;;13.50;65.40;;;;;;5138227;27;20043;-64
2023/03/21 10:43:28;;;;;;;7.30;3.20;;;13.40;68.30;;;;;;5138522;27;20031;-62
2023/03/21 10:45:55;;;;;;;9.68;3.10;;;13.40;62.80;;;;;;5139120;27;20038;-62
2023/03/21 10:48:22;;;;;;;6.07;3.05;;;13.50;64.60;;;;;;5139181;27;20027;-62
2023/03/21 10:50:51;;;;;;;7.70;3.40;;;13.40;58.90;;;;;;5139014;27;20480;-62
2023/03/21 10:53:21;;;;;;;6.88;3.13;;;13.40;64.40;;;;;;5138728;27;20039;-63
2023/03/21 10:55:53;;;;;;;7.03;3.30;;;13.60;58.20;;;;;;5139099;27;20088;-63
2023/03/21 10:58:26;;;;;;;7.47;3.08;;;13.60;58.90;;;;;;5138819;27;20025;-61
2023/03/21 11:01:02;;;;;;;8.35;3.38;;;13.90;54.10;;;;;;5138837;27;20101;-62
2023/03/21 11:03:35;;;;;;;7.68;3.78;;;14.10;46.50;;;;;;5138571;27;20118;-60
2023/03/21 11:06:21;;;;;;;6.90;3.28;;;13.80;51.40;;;;;;5138622;27;20055;-63
2023/03/21 11:08:52;;;;;;;10.38;3.38;;;14.00;53.30;;;;;;5137514;27;20043;-60
2023/03/21 11:11:49;;;;;;;9.23;3.20;;;13.80;56.10;;;;;;5137976;27;20110;-62
2023/03/21 11:14:26;;;;;;;16.48;10.82;;;13.80;58.70;;;;;;5137651;27;20309;-61
2023/03/21 11:16:52;;;;;;;8.32;5.35;;;13.80;54.70;;;;;;5139162;27;20023;-61
2023/03/21 11:19:28;;;;;;;10.57;3.65;;;13.80;53.40;;;;;;5137727;27;20027;-63
2023/03/21 11:21:57;;;;;;;7.82;3.65;;;14.00;52.20;;;;;;5138434;27;20075;-63
2023/03/21 11:24:23;;;;;;;9.10;3.22;;;14.30;42.50;;;;;;5138356;27;20277;-63
2023/03/21 11:26:50;;;;;;;13.23;3.67;;;14.10;41.30;;;;;;5137568;27;20035;-63
2023/03/21 11:29:31;;;;;;;8.13;3.15;;;14.30;40.50;;;;;;5138326;27;20023;-64
2023/03/21 11:32:08;;;;;;;7.45;3.05;;;13.80;39.70;;;;;;5138364;27;20383;-61
2023/03/21 11:34:46;;;;;;;3.40;2.72;;;13.70;49.50;;;;;;5138219;27;20095;-68
2023/03/21 11:37:35;;;;;;;8.45;3.17;;;13.90;50.30;;;;;;5137520;27;20019;-59
2023/03/21 11:40:29;;;;;;;6.20;2.85;;;14.00;40.40;;;;;;5129737;27;20051;-60
2023/03/21 11:42:58;;;;;;;6.65;3.20;;;13.90;37.60;;;;;;5134621;27;20043;-61
2023/03/21 11:45:29;;;;;;;7.75;2.90;;;13.90;38.60;;;;;;5137182;27;20157;-63
2023/03/21 11:47:57;;;;;;;6.55;3.22;;;13.80;36.50;;;;;;5137524;27;20031;-62
2023/03/21 11:50:26;;;;;;;6.78;3.10;;;14.10;33.10;;;;;;5137236;27;20019;-63
2023/03/21 11:53:35;;;;;;;10.60;3.30;;;14.40;29.90;;;;;;5137847;27;20023;-64
2023/03/21 11:56:30;;;;;;;7.72;3.05;;;14.50;28.70;;;;;;5137458;27;20019;-63
2023/03/21 11:59:08;;;;;;;7.13;3.08;;;14.60;9.90;;;;;;5138345;27;20043;-61
2023/03/21 12:01:56;;;;;;;7.05;3.28;;;15.60;1.00;;;;;;5137958;27;20023;-62
2023/03/21 12:04:49;;;;;;;8.93;3.13;;;15.80;1.00;;;;;;5137352;28;20023;-62
2023/03/21 12:07:15;;;;;;;5.10;2.78;;;15.40;1.00;;;;;;5137970;27;20437;-63
2023/03/21 12:10:01;;;;;;;6.07;2.97;;;15.20;1.00;;;;;;5137822;27;20031;-62
2023/03/21 12:13:04;;;;;;;5.93;2.95;;;15.40;1.00;;;;;;5137808;28;20035;-64
2023/03/21 12:15:49;;;;;;;6.65;3.20;;;15.90;1.00;;;;;;5137747;28;20057;-62
2023/03/21 12:18:15;;;;;;;7.75;3.28;;;15.30;1.00;;;;;;5137739;28;20023;-60
2023/03/21 12:21:20;;;;;;;8.27;3.53;;;15.10;1.00;;;;;;5137676;27;20029;-62
2023/03/21 12:24:17;;;;;;;7.32;4.10;;;15.10;1.00;;;;;;5114370;27;20063;-60
2023/03/21 12:27:29;;;;;;;7.13;3.42;;;14.80;1.00;;;;;;5120140;28;20039;-61
2023/03/21 12:30:06;;;;;;;5.47;3.72;;;15.20;1.00;;;;;;5137031;28;20092;-61
2023/03/21 12:33:03;;;;;;;8.05;3.88;;;14.90;1.00;;;;;;5137498;28;20087;-61
2023/03/21 12:35:40;;;;;;;5.35;3.25;;;14.80;1.00;;;;;;5141578;27;20032;-61
2023/03/21 12:38:25;;;;;;;5.10;3.55;;;15.00;1.00;;;;;;5140967;27;20031;-69
2023/03/21 12:41:22;;;;;;;8.30;3.65;;;15.40;1.00;;;;;;5141481;27;20049;-63
2023/03/21 12:43:51;;;;;;;6.97;3.60;;;15.10;1.00;;;;;;5140852;27;20050;-62
2023/03/21 12:46:20;;;;;;;6.63;4.13;;;15.40;1.00;;;;;;5141635;27;20329;-67
2023/03/21 12:48:48;;;;;;;6.18;3.88;;;15.40;1.00;;;;;;5140582;27;20035;-63
2023/03/21 12:51:19;;;;;;;4.85;3.40;;;15.60;1.00;;;;;;5140785;27;20039;-60
2023/03/21 12:54:09;;;;;;;6.03;3.63;;;15.30;1.00;;;;;;5140568;27;20027;-62
2023/03/21 12:57:01;;;;;;;7.68;3.63;;;15.40;1.00;;;;;;5141352;27;20027;-62
2023/03/21 12:59:48;;;;;;;6.50;3.20;;;15.70;1.00;;;;;;5141242;27;20037;-61
2023/03/21 13:02:30;;;;;;;4.45;3.17;;;15.80;1.00;;;;;;5123409;27;20027;-62
2023/03/21 13:05:00;;;;;;;5.30;3.00;;;15.50;1.00;;;;;;5141305;27;20043;-60
2023/03/21 13:07:31;;;;;;;6.93;3.53;;;15.30;1.00;;;;;;5141495;27;20291;-61
2023/03/21 13:09:58;;;;;;;8.45;3.33;;;15.20;1.00;;;;;;5141225;27;20032;-64
2023/03/21 13:12:27;;;;;;;6.38;2.92;;;15.80;1.00;;;;;;5141611;27;20027;-61